Forside
METAR-TAF:

METAR-TAF

Lufthavne :

Chengdu Shuangliu International Airport

Chengdu, Kina

Breddekreds: 30-40N, længdekreds: 104-01E, højde: 508 m

Aktuelle vejr

Denne rapport blev lavet for 45 minutter siden, kl. 02:00 UTC
Vind 2 kt fra varierende retninger
Temperatur 29°C
Fugtighed 79%
Tryk 1010 hPa
Sigt 10 km eller mere
Nogle få skyer i en højde af 2300 ft, Cumulonimbus.
Brudte skyer i en højde af 4300 ft

METAR: ZUUU 160200Z VRB01MPS 9999 FEW023CB BKN043 29/25 Q1010 NOSIG

Tid: 10:45 (02:45 UTC)

Vejrudsigter

Denne rapport blev lavet for 6 timer og 39 minutter siden, kl. 20:06 UTC
Foreløbig gælder fra 16 på 00 UTC til 16 på 24 UTC
Vind 6 kt fra sydsydvest
Sigt: 5000 m
Spredte skyer i en højde af 5000 ft
dis
Midlertidig
fra 16 på 00 UTC til 16 på 06 UTC
Nogle få skyer i en højde af 3000 ft, Cumulonimbus.
Spredte skyer i en højde af 3000 ft
tordenbyger, let regn

TAF: ZUUU 152006Z 1600/1624 20003MPS 5000 BR SCT050 TX34/1607Z TN24/1622Z TEMPO 1600/1606 -TSRA FEW030CB SCT030

Vejrobservationer og prognoser fra mere end 4000 lufthavne (METAR og TAF).

De gule og røde prikker repræsenterer de meteorologiske stationer.

Flyt musen over at se navnet på stationen.

Så klik over at se vejr observationer og prognoser.

At skifte det kort: Klik på de grønne knapper med et sort kors for at zoome ind; på den grønne knap med en bindestreg for at zoome ud; eller på de grønne pile for tilstødende kort.


METAR-TAF: